Flyingcloud — MMWL2 — position and weather

sailwx.info

Track history (hours):
 
Tides and Currents Weather Stations Pressure Air Temp Water Temp Dewpoint Dewpoint Depression Visibility Wind Speed Wind Dir Waves Ship Positions

Flyingcloud

Last reported at 2017-Aug-20 13:58 UTC. Time now 2017-Aug-21 08:10 UTC.
Position N 50°37' W 001°57'.

Length 10 m.

Type: Fishing. MMSI: 235087339.

Date/timePositionNaut miles runAvg speedWind from/ knotsBaromVisibWave heightAir tempDewpointWater temp
2017-Aug-20 13:58N 50°37' W 001°57'0 0.2
2017-Aug-20 13:30N 50°36' W 001°57'0 0.1
2017-Aug-20 10:05N 50°36' W 001°57'0 1.9
2017-Aug-20 09:56N 50°36' W 001°57'0 0.0
2017-Aug-20 09:29N 50°36' W 001°57'0 0.0
2017-Aug-19 21:14N 50°37' W 001°57'1 4.5
2017-Aug-19 20:59N 50°38' W 001°56'0 0.0
2017-Aug-19 20:29N 50°38' W 001°56'0 0.0
2017-Aug-19 20:00N 50°38' W 001°56'2 4.1
2017-Aug-19 19:29N 50°40' W 001°56'0 0.5
2017-Aug-19 19:00N 50°40' W 001°56'1 1.2
2017-Aug-19 18:30N 50°40' W 001°56'0 0.3
2017-Aug-19 17:59N 50°40' W 001°56'1 1.4
2017-Aug-19 17:30N 50°40' W 001°56'3 6.5
2017-Aug-19 17:00N 50°36' W 001°57'0 0.0
2017-Aug-19 16:30N 50°36' W 001°57'0 0.0
2017-Aug-19 09:11N 50°37' W 001°57'0 0.2
2017-Aug-19 09:00N 50°37' W 001°57'  
2017-Aug-15 14:54N 50°37' W 001°57'0 0.2
2017-Aug-15 14:24N 50°36' W 001°57'6 2.6
2017-Aug-15 12:18N 50°35' W 002°05'0 0.0
2017-Aug-15 11:51N 50°35' W 002°05'6 2.9
2017-Aug-15 09:54N 50°36' W 001°57'0 0.7
2017-Aug-15 09:25N 50°36' W 001°57'0 0.0
2017-Aug-15 08:58N 50°36' W 001°57'0 0.0
2017-Aug-13 16:51N 50°37' W 001°57'0 0.0
2017-Aug-13 08:06N 50°36' W 001°57'0 2.3
2017-Aug-13 07:58N 50°36' W 001°57'0 0.1
2017-Aug-13 07:30N 50°36' W 001°57'0 0.0
2017-Aug-12 17:19N 50°37' W 001°57'0 0.3
2017-Aug-12 16:59N 50°36' W 001°57'0 0.1
2017-Aug-12 13:43N 50°36' W 001°57'0 1.3
2017-Aug-12 13:29N 50°36' W 001°57'0 0.0
2017-Aug-12 12:59N 50°36' W 001°57'0 0.0
2017-Aug-12 12:29N 50°36' W 001°57'0 0.0
2017-Aug-12 11:59N 50°36' W 001°57'0 0.0
2017-Aug-12 11:29N 50°36' W 001°57'0 0.0
2017-Aug-10 16:01N 50°37' W 001°57'0 0.1
2017-Aug-10 16:00N 50°37' W 001°57'4 8.3
2017-Aug-10 15:30N 50°41' W 001°57'4 7.9
2017-Aug-10 15:01N 50°37' W 001°57'  
Track history (hours):
 
Tides and Currents Weather Stations Pressure Air Temp Water Temp Dewpoint Dewpoint Depression Visibility Wind Speed Wind Dir Waves Ship Positions

Flyingcloud

Last reported at 2017-Aug-20 13:58 UTC. Time now 2017-Aug-21 08:10 UTC.
Position N 50°37' W 001°57'.

Length 10 m.

Type: Fishing. MMSI: 235087339.

Date/timePositionNaut miles runAvg speedWind from/ knotsBaromVisibWave heightAir tempDewpointWater temp
2017-Aug-20 13:58N 50°37' W 001°57'0 0.2
2017-Aug-20 13:30N 50°36' W 001°57'0 0.1
2017-Aug-20 10:05N 50°36' W 001°57'0 1.9
2017-Aug-20 09:56N 50°36' W 001°57'0 0.0
2017-Aug-20 09:29N 50°36' W 001°57'0 0.0
2017-Aug-19 21:14N 50°37' W 001°57'1 4.5
2017-Aug-19 20:59N 50°38' W 001°56'0 0.0
2017-Aug-19 20:29N 50°38' W 001°56'0 0.0
2017-Aug-19 20:00N 50°38' W 001°56'2 4.1
2017-Aug-19 19:29N 50°40' W 001°56'0 0.5
2017-Aug-19 19:00N 50°40' W 001°56'1 1.2
2017-Aug-19 18:30N 50°40' W 001°56'0 0.3
2017-Aug-19 17:59N 50°40' W 001°56'1 1.4
2017-Aug-19 17:30N 50°40' W 001°56'3 6.5
2017-Aug-19 17:00N 50°36' W 001°57'0 0.0
2017-Aug-19 16:30N 50°36' W 001°57'0 0.0
2017-Aug-19 09:11N 50°37' W 001°57'0 0.2
2017-Aug-19 09:00N 50°37' W 001°57'  
2017-Aug-15 14:54N 50°37' W 001°57'0 0.2
2017-Aug-15 14:24N 50°36' W 001°57'6 2.6
2017-Aug-15 12:18N 50°35' W 002°05'0 0.0
2017-Aug-15 11:51N 50°35' W 002°05'6 2.9
2017-Aug-15 09:54N 50°36' W 001°57'0 0.7
2017-Aug-15 09:25N 50°36' W 001°57'0 0.0
2017-Aug-15 08:58N 50°36' W 001°57'0 0.0
2017-Aug-13 16:51N 50°37' W 001°57'0 0.0
2017-Aug-13 08:06N 50°36' W 001°57'0 2.3
2017-Aug-13 07:58N 50°36' W 001°57'0 0.1
2017-Aug-13 07:30N 50°36' W 001°57'0 0.0
2017-Aug-12 17:19N 50°37' W 001°57'0 0.3
2017-Aug-12 16:59N 50°36' W 001°57'0 0.1
2017-Aug-12 13:43N 50°36' W 001°57'0 1.3
2017-Aug-12 13:29N 50°36' W 001°57'0 0.0
2017-Aug-12 12:59N 50°36' W 001°57'0 0.0
2017-Aug-12 12:29N 50°36' W 001°57'0 0.0
2017-Aug-12 11:59N 50°36' W 001°57'0 0.0
2017-Aug-12 11:29N 50°36' W 001°57'0 0.0
2017-Aug-10 16:01N 50°37' W 001°57'0 0.1
2017-Aug-10 16:00N 50°37' W 001°57'4 8.3
2017-Aug-10 15:30N 50°41' W 001°57'4 7.9
2017-Aug-10 15:01N 50°37' W 001°57'  

Dump ship's entire track history